sensor_id;sensor_type;location;lat;lon;timestamp;P1;durP1;ratioP1;P2;durP2;ratioP2
23617;SDS011;18207;32.078;34.818;2023-12-14T00:01:40;1.58;;;0.95;;
23617;SDS011;18207;32.078;34.818;2023-12-14T00:04:12;1.10;;;0.95;;
23617;SDS011;18207;32.078;34.818;2023-12-14T00:06:43;1.08;;;1.00;;
23617;SDS011;18207;32.078;34.818;2023-12-14T00:09:39;0.82;;;0.82;;
23617;SDS011;18207;32.078;34.818;2023-12-14T00:12:17;1.02;;;0.93;;
23617;SDS011;18207;32.078;34.818;2023-12-14T00:14:54;1.50;;;1.20;;
23617;SDS011;18207;32.078;34.818;2023-12-14T00:17:28;1.23;;;1.10;;
23617;SDS011;18207;32.078;34.818;2023-12-14T00:20:06;1.10;;;1.00;;
23617;SDS011;18207;32.078;34.818;2023-12-14T00:22:40;1.10;;;1.00;;
23617;SDS011;18207;32.078;34.818;2023-12-14T00:25:14;1.20;;;1.00;;
23617;SDS011;18207;32.078;34.818;2023-12-14T00:27:48;0.73;;;0.73;;
23617;SDS011;18207;32.078;34.818;2023-12-14T00:30:23;0.85;;;0.85;;
23617;SDS011;18207;32.078;34.818;2023-12-14T00:32:59;1.52;;;1.15;;
23617;SDS011;18207;32.078;34.818;2023-12-14T00:35:37;0.80;;;0.80;;
23617;SDS011;18207;32.078;34.818;2023-12-14T00:38:16;0.63;;;0.63;;
23617;SDS011;18207;32.078;34.818;2023-12-14T00:40:53;0.93;;;0.93;;
23617;SDS011;18207;32.078;34.818;2023-12-14T00:43:30;1.08;;;0.98;;
23617;SDS011;18207;32.078;34.818;2023-12-14T00:46:10;1.00;;;1.00;;
23617;SDS011;18207;32.078;34.818;2023-12-14T00:48:45;0.95;;;0.93;;
23617;SDS011;18207;32.078;34.818;2023-12-14T00:51:21;0.77;;;0.77;;
23617;SDS011;18207;32.078;34.818;2023-12-14T00:53:57;1.95;;;0.82;;
23617;SDS011;18207;32.078;34.818;2023-12-14T00:56:29;1.17;;;1.13;;
23617;SDS011;18207;32.078;34.818;2023-12-14T00:58:59;1.10;;;1.00;;
23617;SDS011;18207;32.078;34.818;2023-12-14T01:01:30;1.50;;;0.90;;
23617;SDS011;18207;32.078;34.818;2023-12-14T01:04:00;1.08;;;0.90;;
23617;SDS011;18207;32.078;34.818;2023-12-14T01:06:33;0.65;;;0.65;;
23617;SDS011;18207;32.078;34.818;2023-12-14T01:09:03;0.77;;;0.77;;
23617;SDS011;18207;32.078;34.818;2023-12-14T01:11:33;1.10;;;1.00;;
23617;SDS011;18207;32.078;34.818;2023-12-14T01:14:03;1.25;;;0.98;;
23617;SDS011;18207;32.078;34.818;2023-12-14T01:16:33;1.05;;;1.05;;
23617;SDS011;18207;32.078;34.818;2023-12-14T01:19:04;1.08;;;0.98;;
23617;SDS011;18207;32.078;34.818;2023-12-14T01:21:36;1.10;;;1.00;;
23617;SDS011;18207;32.078;34.818;2023-12-14T01:24:05;1.52;;;1.30;;
23617;SDS011;18207;32.078;34.818;2023-12-14T01:26:35;1.13;;;1.02;;
23617;SDS011;18207;32.078;34.818;2023-12-14T01:29:05;1.15;;;1.05;;
23617;SDS011;18207;32.078;34.818;2023-12-14T01:31:35;1.13;;;1.00;;
23617;SDS011;18207;32.078;34.818;2023-12-14T01:34:05;1.55;;;1.10;;
23617;SDS011;18207;32.078;34.818;2023-12-14T01:36:38;1.02;;;0.98;;
23617;SDS011;18207;32.078;34.818;2023-12-14T01:39:08;1.27;;;1.17;;
23617;SDS011;18207;32.078;34.818;2023-12-14T01:41:38;1.30;;;1.15;;
23617;SDS011;18207;32.078;34.818;2023-12-14T01:44:08;0.88;;;0.88;;
23617;SDS011;18207;32.078;34.818;2023-12-14T01:46:38;0.88;;;0.88;;
23617;SDS011;18207;32.078;34.818;2023-12-14T01:49:07;1.38;;;0.95;;
23617;SDS011;18207;32.078;34.818;2023-12-14T01:51:39;1.92;;;1.10;;
23617;SDS011;18207;32.078;34.818;2023-12-14T01:54:09;1.00;;;1.00;;
23617;SDS011;18207;32.078;34.818;2023-12-14T01:56:40;1.58;;;1.05;;
23617;SDS011;18207;32.078;34.818;2023-12-14T01:59:10;1.20;;;1.10;;
23617;SDS011;18207;32.078;34.818;2023-12-14T02:01:41;1.25;;;1.15;;
23617;SDS011;18207;32.078;34.818;2023-12-14T02:04:14;1.10;;;1.10;;
23617;SDS011;18207;32.078;34.818;2023-12-14T02:06:46;1.10;;;1.10;;
23617;SDS011;18207;32.078;34.818;2023-12-14T02:09:16;0.90;;;0.90;;
23617;SDS011;18207;32.078;34.818;2023-12-14T02:11:46;1.40;;;1.30;;
23617;SDS011;18207;32.078;34.818;2023-12-14T02:14:16;1.30;;;1.05;;
23617;SDS011;18207;32.078;34.818;2023-12-14T02:16:46;0.80;;;0.80;;
23617;SDS011;18207;32.078;34.818;2023-12-14T02:19:16;1.23;;;1.20;;
23617;SDS011;18207;32.078;34.818;2023-12-14T02:21:48;1.30;;;1.20;;
23617;SDS011;18207;32.078;34.818;2023-12-14T02:24:20;0.98;;;0.95;;
23617;SDS011;18207;32.078;34.818;2023-12-14T02:26:50;1.17;;;1.08;;
23617;SDS011;18207;32.078;34.818;2023-12-14T02:29:29;1.20;;;1.10;;
23617;SDS011;18207;32.078;34.818;2023-12-14T02:31:59;1.10;;;1.00;;
23617;SDS011;18207;32.078;34.818;2023-12-14T02:34:29;1.23;;;1.00;;
23617;SDS011;18207;32.078;34.818;2023-12-14T02:36:59;1.33;;;0.95;;
23617;SDS011;18207;32.078;34.818;2023-12-14T02:39:32;1.65;;;1.20;;
23617;SDS011;18207;32.078;34.818;2023-12-14T02:42:01;1.17;;;1.08;;
23617;SDS011;18207;32.078;34.818;2023-12-14T02:44:31;1.35;;;1.25;;
23617;SDS011;18207;32.078;34.818;2023-12-14T02:47:01;1.17;;;1.10;;
23617;SDS011;18207;32.078;34.818;2023-12-14T02:49:31;1.35;;;1.00;;
23617;SDS011;18207;32.078;34.818;2023-12-14T02:52:01;1.40;;;1.30;;
23617;SDS011;18207;32.078;34.818;2023-12-14T02:54:34;2.17;;;1.02;;
23617;SDS011;18207;32.078;34.818;2023-12-14T02:57:05;1.40;;;1.20;;
23617;SDS011;18207;32.078;34.818;2023-12-14T02:59:34;1.17;;;1.10;;
23617;SDS011;18207;32.078;34.818;2023-12-14T03:02:04;1.05;;;0.95;;
23617;SDS011;18207;32.078;34.818;2023-12-14T03:04:34;1.45;;;1.02;;
23617;SDS011;18207;32.078;34.818;2023-12-14T03:07:07;1.25;;;1.15;;
23617;SDS011;18207;32.078;34.818;2023-12-14T03:09:40;1.75;;;1.40;;
23617;SDS011;18207;32.078;34.818;2023-12-14T03:12:11;1.15;;;1.00;;
23617;SDS011;18207;32.078;34.818;2023-12-14T03:14:41;1.30;;;1.20;;
23617;SDS011;18207;32.078;34.818;2023-12-14T03:17:11;1.17;;;1.10;;
23617;SDS011;18207;32.078;34.818;2023-12-14T03:19:42;1.15;;;0.98;;
23617;SDS011;18207;32.078;34.818;2023-12-14T03:22:14;1.40;;;1.30;;
23617;SDS011;18207;32.078;34.818;2023-12-14T03:24:46;1.17;;;1.08;;
23617;SDS011;18207;32.078;34.818;2023-12-14T03:27:16;1.25;;;1.20;;
23617;SDS011;18207;32.078;34.818;2023-12-14T03:29:46;1.20;;;1.10;;
23617;SDS011;18207;32.078;34.818;2023-12-14T03:32:16;1.10;;;1.00;;
23617;SDS011;18207;32.078;34.818;2023-12-14T03:34:46;1.13;;;1.05;;
23617;SDS011;18207;32.078;34.818;2023-12-14T03:37:17;1.05;;;1.05;;
23617;SDS011;18207;32.078;34.818;2023-12-14T03:39:47;1.25;;;1.15;;
23617;SDS011;18207;32.078;34.818;2023-12-14T03:42:17;1.08;;;0.93;;
23617;SDS011;18207;32.078;34.818;2023-12-14T03:44:48;1.13;;;1.02;;
23617;SDS011;18207;32.078;34.818;2023-12-14T03:47:18;1.10;;;1.05;;
23617;SDS011;18207;32.078;34.818;2023-12-14T03:49:48;0.80;;;0.80;;
23617;SDS011;18207;32.078;34.818;2023-12-14T03:52:18;1.10;;;1.10;;
23617;SDS011;18207;32.078;34.818;2023-12-14T03:54:50;1.05;;;1.05;;
23617;SDS011;18207;32.078;34.818;2023-12-14T03:57:19;1.98;;;1.13;;
23617;SDS011;18207;32.078;34.818;2023-12-14T03:59:49;1.20;;;1.10;;
23617;SDS011;18207;32.078;34.818;2023-12-14T04:02:19;1.00;;;1.00;;
23617;SDS011;18207;32.078;34.818;2023-12-14T04:04:50;0.95;;;0.95;;
23617;SDS011;18207;32.078;34.818;2023-12-14T04:07:19;1.38;;;1.27;;
23617;SDS011;18207;32.078;34.818;2023-12-14T04:09:51;1.05;;;0.95;;
23617;SDS011;18207;32.078;34.818;2023-12-14T04:12:21;0.88;;;0.88;;
23617;SDS011;18207;32.078;34.818;2023-12-14T04:14:51;0.90;;;0.90;;
23617;SDS011;18207;32.078;34.818;2023-12-14T04:17:21;1.10;;;1.00;;
23617;SDS011;18207;32.078;34.818;2023-12-14T04:19:51;1.25;;;1.15;;
23617;SDS011;18207;32.078;34.818;2023-12-14T04:22:21;1.33;;;1.23;;
23617;SDS011;18207;32.078;34.818;2023-12-14T04:24:53;1.17;;;0.98;;
23617;SDS011;18207;32.078;34.818;2023-12-14T04:27:23;1.15;;;1.15;;
23617;SDS011;18207;32.078;34.818;2023-12-14T04:29:55;1.20;;;1.10;;
23617;SDS011;18207;32.078;34.818;2023-12-14T04:32:25;1.15;;;1.00;;
23617;SDS011;18207;32.078;34.818;2023-12-14T04:34:55;1.13;;;1.08;;
23617;SDS011;18207;32.078;34.818;2023-12-14T04:37:25;1.30;;;1.20;;
23617;SDS011;18207;32.078;34.818;2023-12-14T04:39:57;1.15;;;0.95;;
23617;SDS011;18207;32.078;34.818;2023-12-14T04:42:28;1.10;;;1.10;;
23617;SDS011;18207;32.078;34.818;2023-12-14T04:44:58;1.30;;;1.20;;
23617;SDS011;18207;32.078;34.818;2023-12-14T04:47:27;1.52;;;1.42;;
23617;SDS011;18207;32.078;34.818;2023-12-14T04:49:57;1.25;;;1.10;;
23617;SDS011;18207;32.078;34.818;2023-12-14T04:52:27;1.85;;;1.30;;
23617;SDS011;18207;32.078;34.818;2023-12-14T04:54:59;1.00;;;1.00;;
23617;SDS011;18207;32.078;34.818;2023-12-14T04:57:29;1.20;;;1.20;;
23617;SDS011;18207;32.078;34.818;2023-12-14T04:59:58;1.50;;;1.40;;
23617;SDS011;18207;32.078;34.818;2023-12-14T05:02:27;1.33;;;1.23;;
23617;SDS011;18207;32.078;34.818;2023-12-14T05:04:57;1.60;;;1.50;;
23617;SDS011;18207;32.078;34.818;2023-12-14T05:07:27;1.50;;;1.40;;
23617;SDS011;18207;32.078;34.818;2023-12-14T05:09:59;1.42;;;1.33;;
23617;SDS011;18207;32.078;34.818;2023-12-14T05:12:30;1.60;;;1.50;;
23617;SDS011;18207;32.078;34.818;2023-12-14T05:15:00;1.40;;;1.30;;
23617;SDS011;18207;32.078;34.818;2023-12-14T05:17:30;1.58;;;1.48;;
23617;SDS011;18207;32.078;34.818;2023-12-14T05:20:00;1.63;;;1.52;;
23617;SDS011;18207;32.078;34.818;2023-12-14T05:22:29;1.80;;;1.67;;
23617;SDS011;18207;32.078;34.818;2023-12-14T05:25:02;2.20;;;1.70;;
23617;SDS011;18207;32.078;34.818;2023-12-14T05:27:33;1.70;;;1.60;;
23617;SDS011;18207;32.078;34.818;2023-12-14T05:30:03;1.63;;;1.52;;
23617;SDS011;18207;32.078;34.818;2023-12-14T05:32:34;2.10;;;1.90;;
23617;SDS011;18207;32.078;34.818;2023-12-14T05:35:05;2.25;;;2.05;;
23617;SDS011;18207;32.078;34.818;2023-12-14T05:37:38;1.80;;;1.70;;
23617;SDS011;18207;32.078;34.818;2023-12-14T05:40:11;2.15;;;1.88;;
23617;SDS011;18207;32.078;34.818;2023-12-14T05:42:41;2.00;;;1.80;;
23617;SDS011;18207;32.078;34.818;2023-12-14T05:45:11;2.30;;;1.92;;
23617;SDS011;18207;32.078;34.818;2023-12-14T05:47:41;2.15;;;2.00;;
23617;SDS011;18207;32.078;34.818;2023-12-14T05:50:10;2.30;;;2.10;;
23617;SDS011;18207;32.078;34.818;2023-12-14T05:52:40;2.28;;;2.08;;
23617;SDS011;18207;32.078;34.818;2023-12-14T05:55:14;2.50;;;2.30;;
23617;SDS011;18207;32.078;34.818;2023-12-14T05:57:48;2.75;;;2.10;;
23617;SDS011;18207;32.078;34.818;2023-12-14T06:00:19;2.15;;;2.05;;
23617;SDS011;18207;32.078;34.818;2023-12-14T06:02:48;2.35;;;2.15;;
23617;SDS011;18207;32.078;34.818;2023-12-14T06:05:18;2.53;;;2.20;;
23617;SDS011;18207;32.078;34.818;2023-12-14T06:07:49;3.00;;;2.30;;
23617;SDS011;18207;32.078;34.818;2023-12-14T06:10:20;2.22;;;2.03;;
23617;SDS011;18207;32.078;34.818;2023-12-14T06:12:52;2.75;;;2.40;;
23617;SDS011;18207;32.078;34.818;2023-12-14T06:15:22;2.45;;;2.25;;
23617;SDS011;18207;32.078;34.818;2023-12-14T06:17:52;2.50;;;2.30;;
23617;SDS011;18207;32.078;34.818;2023-12-14T06:20:22;2.63;;;2.42;;
23617;SDS011;18207;32.078;34.818;2023-12-14T06:22:53;2.63;;;2.42;;
23617;SDS011;18207;32.078;34.818;2023-12-14T06:25:25;2.90;;;2.58;;
23617;SDS011;18207;32.078;34.818;2023-12-14T06:27:54;2.80;;;2.60;;
23617;SDS011;18207;32.078;34.818;2023-12-14T06:30:24;2.67;;;2.47;;
23617;SDS011;18207;32.078;34.818;2023-12-14T06:32:54;2.70;;;2.50;;
23617;SDS011;18207;32.078;34.818;2023-12-14T06:35:25;2.95;;;2.70;;
23617;SDS011;18207;32.078;34.818;2023-12-14T06:37:53;2.70;;;2.50;;
23617;SDS011;18207;32.078;34.818;2023-12-14T06:40:25;2.60;;;2.40;;
23617;SDS011;18207;32.078;34.818;2023-12-14T06:42:55;3.88;;;2.72;;
23617;SDS011;18207;32.078;34.818;2023-12-14T06:45:25;2.70;;;2.50;;
23617;SDS011;18207;32.078;34.818;2023-12-14T06:47:55;2.78;;;2.58;;
23617;SDS011;18207;32.078;34.818;2023-12-14T06:50:25;2.75;;;2.55;;
23617;SDS011;18207;32.078;34.818;2023-12-14T06:52:55;2.90;;;2.70;;
23617;SDS011;18207;32.078;34.818;2023-12-14T06:55:27;3.30;;;3.00;;
23617;SDS011;18207;32.078;34.818;2023-12-14T06:57:57;3.50;;;3.20;;
23617;SDS011;18207;32.078;34.818;2023-12-14T07:00:27;3.10;;;2.80;;
23617;SDS011;18207;32.078;34.818;2023-12-14T07:02:57;3.13;;;2.92;;
23617;SDS011;18207;32.078;34.818;2023-12-14T07:05:27;2.97;;;2.78;;
23617;SDS011;18207;32.078;34.818;2023-12-14T07:07:57;3.47;;;3.17;;
23617;SDS011;18207;32.078;34.818;2023-12-14T07:10:29;3.25;;;3.05;;
23617;SDS011;18207;32.078;34.818;2023-12-14T07:12:59;4.20;;;2.95;;
23617;SDS011;18207;32.078;34.818;2023-12-14T07:15:29;3.05;;;2.85;;
23617;SDS011;18207;32.078;34.818;2023-12-14T07:17:59;3.40;;;3.10;;
23617;SDS011;18207;32.078;34.818;2023-12-14T07:20:29;3.03;;;2.83;;
23617;SDS011;18207;32.078;34.818;2023-12-14T07:22:59;3.08;;;2.88;;
23617;SDS011;18207;32.078;34.818;2023-12-14T07:25:31;2.90;;;2.70;;
23617;SDS011;18207;32.078;34.818;2023-12-14T07:28:01;3.50;;;3.20;;
23617;SDS011;18207;32.078;34.818;2023-12-14T07:30:31;2.83;;;2.63;;
23617;SDS011;18207;32.078;34.818;2023-12-14T07:33:00;2.90;;;2.70;;
23617;SDS011;18207;32.078;34.818;2023-12-14T07:35:33;2.97;;;2.78;;
23617;SDS011;18207;32.078;34.818;2023-12-14T07:38:03;2.92;;;2.72;;
23617;SDS011;18207;32.078;34.818;2023-12-14T07:40:34;3.33;;;3.08;;
23617;SDS011;18207;32.078;34.818;2023-12-14T07:43:05;2.97;;;2.78;;
23617;SDS011;18207;32.078;34.818;2023-12-14T07:45:35;3.10;;;2.80;;
23617;SDS011;18207;32.078;34.818;2023-12-14T07:48:05;2.95;;;2.75;;
23617;SDS011;18207;32.078;34.818;2023-12-14T07:50:35;3.10;;;2.85;;
23617;SDS011;18207;32.078;34.818;2023-12-14T07:53:05;2.78;;;2.58;;
23617;SDS011;18207;32.078;34.818;2023-12-14T07:55:37;2.83;;;2.63;;
23617;SDS011;18207;32.078;34.818;2023-12-14T07:58:08;3.00;;;2.80;;
23617;SDS011;18207;32.078;34.818;2023-12-14T08:00:40;2.95;;;2.63;;
23617;SDS011;18207;32.078;34.818;2023-12-14T08:03:09;2.95;;;2.65;;
23617;SDS011;18207;32.078;34.818;2023-12-14T08:05:39;3.22;;;2.58;;
23617;SDS011;18207;32.078;34.818;2023-12-14T08:08:09;2.97;;;2.78;;
23617;SDS011;18207;32.078;34.818;2023-12-14T08:10:41;2.95;;;2.75;;
23617;SDS011;18207;32.078;34.818;2023-12-14T08:13:11;2.85;;;2.65;;
23617;SDS011;18207;32.078;34.818;2023-12-14T08:15:40;2.90;;;2.70;;
23617;SDS011;18207;32.078;34.818;2023-12-14T08:18:10;2.70;;;2.50;;
23617;SDS011;18207;32.078;34.818;2023-12-14T08:20:40;2.58;;;2.38;;
23617;SDS011;18207;32.078;34.818;2023-12-14T08:23:10;2.17;;;2.08;;
23617;SDS011;18207;32.078;34.818;2023-12-14T08:25:42;2.60;;;2.42;;
23617;SDS011;18207;32.078;34.818;2023-12-14T08:28:12;2.50;;;2.30;;
23617;SDS011;18207;32.078;34.818;2023-12-14T08:30:42;2.08;;;1.98;;
23617;SDS011;18207;32.078;34.818;2023-12-14T08:33:12;2.40;;;2.20;;
23617;SDS011;18207;32.078;34.818;2023-12-14T08:35:42;2.45;;;2.22;;
23617;SDS011;18207;32.078;34.818;2023-12-14T08:38:12;2.38;;;2.17;;
23617;SDS011;18207;32.078;34.818;2023-12-14T08:40:45;2.67;;;2.47;;
23617;SDS011;18207;32.078;34.818;2023-12-14T08:43:15;2.53;;;2.33;;
23617;SDS011;18207;32.078;34.818;2023-12-14T08:45:45;2.60;;;2.40;;
23617;SDS011;18207;32.078;34.818;2023-12-14T08:48:15;2.60;;;2.40;;
23617;SDS011;18207;32.078;34.818;2023-12-14T08:50:45;2.30;;;2.10;;
23617;SDS011;18207;32.078;34.818;2023-12-14T08:53:15;2.10;;;2.00;;
23617;SDS011;18207;32.078;34.818;2023-12-14T08:55:47;2.47;;;2.28;;
23617;SDS011;18207;32.078;34.818;2023-12-14T08:58:17;2.20;;;2.00;;
23617;SDS011;18207;32.078;34.818;2023-12-14T09:00:47;2.08;;;1.92;;
23617;SDS011;18207;32.078;34.818;2023-12-14T09:03:20;2.40;;;2.03;;
23617;SDS011;18207;32.078;34.818;2023-12-14T09:05:50;2.35;;;2.03;;
23617;SDS011;18207;32.078;34.818;2023-12-14T09:08:20;2.10;;;2.00;;
23617;SDS011;18207;32.078;34.818;2023-12-14T09:10:52;2.15;;;1.98;;
23617;SDS011;18207;32.078;34.818;2023-12-14T09:13:22;2.10;;;2.00;;
23617;SDS011;18207;32.078;34.818;2023-12-14T09:15:51;2.30;;;2.08;;
23617;SDS011;18207;32.078;34.818;2023-12-14T09:18:21;2.03;;;1.92;;
23617;SDS011;18207;32.078;34.818;2023-12-14T09:20:51;1.95;;;1.85;;
23617;SDS011;18207;32.078;34.818;2023-12-14T09:23:21;2.20;;;2.10;;
23617;SDS011;18207;32.078;34.818;2023-12-14T09:25:53;2.80;;;1.98;;
23617;SDS011;18207;32.078;34.818;2023-12-14T09:28:23;1.60;;;1.50;;
23617;SDS011;18207;32.078;34.818;2023-12-14T09:30:53;1.83;;;1.73;;
23617;SDS011;18207;32.078;34.818;2023-12-14T09:33:23;1.98;;;1.88;;
23617;SDS011;18207;32.078;34.818;2023-12-14T09:35:56;2.63;;;1.70;;
23617;SDS011;18207;32.078;34.818;2023-12-14T09:38:26;1.85;;;1.73;;
23617;SDS011;18207;32.078;34.818;2023-12-14T09:40:59;2.17;;;1.70;;
23617;SDS011;18207;32.078;34.818;2023-12-14T09:43:40;1.70;;;1.60;;
23617;SDS011;18207;32.078;34.818;2023-12-14T09:46:17;1.48;;;1.38;;
23617;SDS011;18207;32.078;34.818;2023-12-14T09:48:53;1.25;;;1.23;;
23617;SDS011;18207;32.078;34.818;2023-12-14T09:51:30;1.27;;;1.17;;
23617;SDS011;18207;32.078;34.818;2023-12-14T09:54:01;1.40;;;1.30;;
23617;SDS011;18207;32.078;34.818;2023-12-14T09:56:32;1.48;;;1.38;;
23617;SDS011;18207;32.078;34.818;2023-12-14T09:59:02;1.17;;;1.08;;
23617;SDS011;18207;32.078;34.818;2023-12-14T10:01:34;0.70;;;0.70;;
23617;SDS011;18207;32.078;34.818;2023-12-14T10:04:07;1.00;;;1.00;;
23617;SDS011;18207;32.078;34.818;2023-12-14T10:06:39;0.50;;;0.50;;
23617;SDS011;18207;32.078;34.818;2023-12-14T10:09:12;0.70;;;0.70;;
23617;SDS011;18207;32.078;34.818;2023-12-14T10:11:47;0.70;;;0.70;;
23617;SDS011;18207;32.078;34.818;2023-12-14T10:14:29;0.75;;;0.75;;
23617;SDS011;18207;32.078;34.818;2023-12-14T10:17:02;0.60;;;0.60;;
23617;SDS011;18207;32.078;34.818;2023-12-14T10:19:45;0.85;;;0.85;;
23617;SDS011;18207;32.078;34.818;2023-12-14T10:22:16;0.80;;;0.77;;
23617;SDS011;18207;32.078;34.818;2023-12-14T10:24:46;0.75;;;0.75;;
23617;SDS011;18207;32.078;34.818;2023-12-14T10:27:19;0.80;;;0.80;;
23617;SDS011;18207;32.078;34.818;2023-12-14T10:29:55;0.50;;;0.50;;
23617;SDS011;18207;32.078;34.818;2023-12-14T10:32:31;1.00;;;0.70;;
23617;SDS011;18207;32.078;34.818;2023-12-14T10:35:05;0.95;;;0.95;;
23617;SDS011;18207;32.078;34.818;2023-12-14T10:37:37;1.60;;;0.85;;
23617;SDS011;18207;32.078;34.818;2023-12-14T10:40:08;0.95;;;0.95;;
23617;SDS011;18207;32.078;34.818;2023-12-14T10:42:49;0.80;;;0.80;;
23617;SDS011;18207;32.078;34.818;2023-12-14T10:45:32;1.05;;;1.00;;
23617;SDS011;18207;32.078;34.818;2023-12-14T10:48:03;1.20;;;1.10;;
23617;SDS011;18207;32.078;34.818;2023-12-14T10:50:35;0.95;;;0.70;;
23617;SDS011;18207;32.078;34.818;2023-12-14T10:53:05;1.95;;;1.00;;
23617;SDS011;18207;32.078;34.818;2023-12-14T10:55:37;1.02;;;1.00;;
23617;SDS011;18207;32.078;34.818;2023-12-14T10:58:13;1.10;;;1.10;;
23617;SDS011;18207;32.078;34.818;2023-12-14T11:00:43;0.80;;;0.80;;
23617;SDS011;18207;32.078;34.818;2023-12-14T11:03:26;0.63;;;0.63;;
23617;SDS011;18207;32.078;34.818;2023-12-14T11:06:00;0.80;;;0.80;;
23617;SDS011;18207;32.078;34.818;2023-12-14T11:08:41;0.98;;;0.98;;
23617;SDS011;18207;32.078;34.818;2023-12-14T11:11:13;0.90;;;0.90;;
23617;SDS011;18207;32.078;34.818;2023-12-14T11:13:50;0.93;;;0.93;;
23617;SDS011;18207;32.078;34.818;2023-12-14T11:16:23;1.17;;;0.95;;
23617;SDS011;18207;32.078;34.818;2023-12-14T11:22:13;0.98;;;0.98;;
23617;SDS011;18207;32.078;34.818;2023-12-14T11:24:54;0.95;;;0.95;;
23617;SDS011;18207;32.078;34.818;2023-12-14T11:27:28;1.17;;;1.08;;
23617;SDS011;18207;32.078;34.818;2023-12-14T11:30:00;0.95;;;0.93;;
23617;SDS011;18207;32.078;34.818;2023-12-14T11:32:32;0.80;;;0.80;;
23617;SDS011;18207;32.078;34.818;2023-12-14T11:35:04;1.02;;;0.90;;
23617;SDS011;18207;32.078;34.818;2023-12-14T11:37:37;1.00;;;1.00;;
23617;SDS011;18207;32.078;34.818;2023-12-14T11:40:09;0.77;;;0.77;;
23617;SDS011;18207;32.078;34.818;2023-12-14T11:42:43;1.10;;;1.00;;
23617;SDS011;18207;32.078;34.818;2023-12-14T11:45:15;0.80;;;0.80;;
23617;SDS011;18207;32.078;34.818;2023-12-14T11:47:45;1.02;;;0.60;;
23617;SDS011;18207;32.078;34.818;2023-12-14T11:50:15;0.82;;;0.82;;
23617;SDS011;18207;32.078;34.818;2023-12-14T11:52:45;0.60;;;0.60;;
23617;SDS011;18207;32.078;34.818;2023-12-14T11:55:15;0.63;;;0.63;;
23617;SDS011;18207;32.078;34.818;2023-12-14T11:57:46;0.82;;;0.80;;
23617;SDS011;18207;32.078;34.818;2023-12-14T12:00:21;0.93;;;0.93;;
23617;SDS011;18207;32.078;34.818;2023-12-14T12:03:06;0.80;;;0.80;;
23617;SDS011;18207;32.078;34.818;2023-12-14T12:05:39;0.98;;;0.73;;
23617;SDS011;18207;32.078;34.818;2023-12-14T12:08:11;1.20;;;1.10;;
23617;SDS011;18207;32.078;34.818;2023-12-14T12:10:43;0.90;;;0.90;;
23617;SDS011;18207;32.078;34.818;2023-12-14T12:13:14;1.17;;;1.05;;
23617;SDS011;18207;32.078;34.818;2023-12-14T12:15:47;1.30;;;1.20;;
23617;SDS011;18207;32.078;34.818;2023-12-14T12:18:17;1.05;;;1.05;;
23617;SDS011;18207;32.078;34.818;2023-12-14T12:20:47;1.00;;;1.00;;
23617;SDS011;18207;32.078;34.818;2023-12-14T12:23:17;0.77;;;0.77;;
23617;SDS011;18207;32.078;34.818;2023-12-14T12:25:47;1.10;;;1.02;;
23617;SDS011;18207;32.078;34.818;2023-12-14T12:28:16;1.27;;;1.17;;
23617;SDS011;18207;32.078;34.818;2023-12-14T12:30:48;1.35;;;1.25;;
23617;SDS011;18207;32.078;34.818;2023-12-14T12:33:17;0.93;;;0.90;;
23617;SDS011;18207;32.078;34.818;2023-12-14T12:35:48;1.15;;;1.10;;
23617;SDS011;18207;32.078;34.818;2023-12-14T12:38:17;0.93;;;0.93;;
23617;SDS011;18207;32.078;34.818;2023-12-14T12:40:47;1.05;;;0.95;;
23617;SDS011;18207;32.078;34.818;2023-12-14T12:43:17;1.17;;;1.08;;
23617;SDS011;18207;32.078;34.818;2023-12-14T12:45:56;0.65;;;0.65;;
23617;SDS011;18207;32.078;34.818;2023-12-14T12:48:26;1.55;;;0.88;;
23617;SDS011;18207;32.078;34.818;2023-12-14T12:50:57;0.80;;;0.80;;
23617;SDS011;18207;32.078;34.818;2023-12-14T12:53:26;0.90;;;0.68;;
23617;SDS011;18207;32.078;34.818;2023-12-14T12:55:58;1.02;;;1.02;;
23617;SDS011;18207;32.078;34.818;2023-12-14T12:58:28;1.00;;;1.00;;
23617;SDS011;18207;32.078;34.818;2023-12-14T13:01:04;0.93;;;0.85;;
23617;SDS011;18207;32.078;34.818;2023-12-14T13:03:35;1.27;;;0.90;;
23617;SDS011;18207;32.078;34.818;2023-12-14T13:06:04;0.73;;;0.73;;
23617;SDS011;18207;32.078;34.818;2023-12-14T13:08:35;1.00;;;1.00;;
23617;SDS011;18207;32.078;34.818;2023-12-14T13:11:19;1.38;;;1.27;;
23617;SDS011;18207;32.078;34.818;2023-12-14T13:13:49;1.63;;;1.52;;
23617;SDS011;18207;32.078;34.818;2023-12-14T13:16:21;1.45;;;1.35;;
23617;SDS011;18207;32.078;34.818;2023-12-14T13:18:56;1.48;;;1.40;;
23617;SDS011;18207;32.078;34.818;2023-12-14T13:21:26;1.40;;;1.30;;
23617;SDS011;18207;32.078;34.818;2023-12-14T13:23:56;1.40;;;1.15;;
23617;SDS011;18207;32.078;34.818;2023-12-14T13:26:26;1.27;;;1.17;;
23617;SDS011;18207;32.078;34.818;2023-12-14T13:28:56;1.50;;;1.40;;
23617;SDS011;18207;32.078;34.818;2023-12-14T13:31:28;1.30;;;1.17;;
23617;SDS011;18207;32.078;34.818;2023-12-14T13:33:57;1.58;;;1.48;;
23617;SDS011;18207;32.078;34.818;2023-12-14T13:36:27;1.88;;;1.20;;
23617;SDS011;18207;32.078;34.818;2023-12-14T13:38:57;1.20;;;1.10;;
23617;SDS011;18207;32.078;34.818;2023-12-14T13:41:29;1.13;;;1.08;;
23617;SDS011;18207;32.078;34.818;2023-12-14T13:44:15;1.50;;;1.40;;
23617;SDS011;18207;32.078;34.818;2023-12-14T13:46:47;1.50;;;1.40;;
23617;SDS011;18207;32.078;34.818;2023-12-14T13:49:22;1.27;;;1.17;;
23617;SDS011;18207;32.078;34.818;2023-12-14T13:51:52;1.27;;;1.20;;
23617;SDS011;18207;32.078;34.818;2023-12-14T13:54:22;1.30;;;1.20;;
23617;SDS011;18207;32.078;34.818;2023-12-14T13:56:52;1.13;;;1.02;;
23617;SDS011;18207;32.078;34.818;2023-12-14T13:59:24;1.20;;;1.10;;
23617;SDS011;18207;32.078;34.818;2023-12-14T14:01:56;1.35;;;1.25;;
23617;SDS011;18207;32.078;34.818;2023-12-14T14:04:27;1.13;;;1.13;;
23617;SDS011;18207;32.078;34.818;2023-12-14T14:06:57;1.30;;;1.20;;
23617;SDS011;18207;32.078;34.818;2023-12-14T14:09:27;1.42;;;1.33;;
23617;SDS011;18207;32.078;34.818;2023-12-14T14:11:57;1.33;;;1.23;;
23617;SDS011;18207;32.078;34.818;2023-12-14T14:14:27;1.05;;;1.05;;
23617;SDS011;18207;32.078;34.818;2023-12-14T14:17:01;1.23;;;1.23;;
23617;SDS011;18207;32.078;34.818;2023-12-14T14:19:34;0.98;;;0.98;;
23617;SDS011;18207;32.078;34.818;2023-12-14T14:22:04;1.02;;;1.00;;
23617;SDS011;18207;32.078;34.818;2023-12-14T14:24:34;1.15;;;1.15;;
23617;SDS011;18207;32.078;34.818;2023-12-14T14:27:08;1.10;;;1.05;;
23617;SDS011;18207;32.078;34.818;2023-12-14T14:29:40;1.02;;;0.90;;
23617;SDS011;18207;32.078;34.818;2023-12-14T14:32:15;1.00;;;1.00;;
23617;SDS011;18207;32.078;34.818;2023-12-14T14:34:46;1.33;;;0.95;;
23617;SDS011;18207;32.078;34.818;2023-12-14T14:37:18;1.50;;;1.40;;
23617;SDS011;18207;32.078;34.818;2023-12-14T14:39:52;1.50;;;1.40;;
23617;SDS011;18207;32.078;34.818;2023-12-14T14:42:23;1.73;;;1.63;;
23617;SDS011;18207;32.078;34.818;2023-12-14T14:44:54;1.45;;;1.35;;
23617;SDS011;18207;32.078;34.818;2023-12-14T14:47:31;1.25;;;1.23;;
23617;SDS011;18207;32.078;34.818;2023-12-14T14:50:06;1.10;;;1.10;;
23617;SDS011;18207;32.078;34.818;2023-12-14T14:52:43;1.10;;;1.00;;
23617;SDS011;18207;32.078;34.818;2023-12-14T14:55:16;1.00;;;1.00;;
23617;SDS011;18207;32.078;34.818;2023-12-14T14:57:49;0.82;;;0.82;;
23617;SDS011;18207;32.078;34.818;2023-12-14T15:00:19;0.93;;;0.93;;
23617;SDS011;18207;32.078;34.818;2023-12-14T15:02:52;0.80;;;0.80;;